X  Tanca Dades meteorològiques de l'aviació METAR     EDDH Hamburg Helmut Schmidt Airport
Temperatura
19°C Temperatura
7°C Rosada
46% Humitat



Vent
14 KM/H
9 MPH
4 M/S
8 NUS



300°
ONO
Condicions actuals

Sense núvols Sense núvols
Pressió 1014.92 (hPa) - 29.97 (inHg)
Visibilitat 6.2 (milla) - 10 (km)
Aeroport
Codi aeroport EDDH

Ubicació: Hamburg Helmut Schmidt Airport
Distància: 11 (km)

Metar:
EDDH 221420Z AUTO 30008KT 250V350 CAVOK 19/07 Q1015 NOSIG

Temps: 22-05-2022 16:20 CEST